createdAt,value
2023-03-04T00:00:49.015Z,97345.72
2023-03-04T00:04:49.529Z,97324.50
2023-03-04T00:08:50.317Z,97333.09
2023-03-04T00:12:50.964Z,97343.72
2023-03-04T00:16:54.410Z,97346.06
2023-03-04T00:20:55.714Z,97343.56
2023-03-04T00:24:56.302Z,97348.09
2023-03-04T00:28:56.958Z,97341.28
2023-03-04T00:33:00.343Z,97338.56
2023-03-04T00:37:01.726Z,97349.09
2023-03-04T00:41:02.005Z,97334.28
2023-03-04T00:45:02.720Z,97333.56
2023-03-04T00:49:08.720Z,97325.72
2023-03-04T00:53:10.189Z,97325.50
2023-03-04T00:57:11.182Z,97326.50
2023-03-04T01:01:12.219Z,97323.22
2023-03-04T01:05:16.882Z,97316.75
2023-03-04T01:09:17.587Z,97315.41
2023-03-04T01:13:17.918Z,97312.00
2023-03-04T01:17:18.505Z,97311.16
2023-03-04T01:21:22.111Z,97291.03
2023-03-04T01:25:23.858Z,97313.47
2023-03-04T01:29:24.374Z,97316.22
2023-03-04T01:33:25.323Z,97307.75
2023-03-04T01:37:28.703Z,97308.59
2023-03-04T01:41:30.550Z,97304.50
2023-03-04T01:45:40.270Z,97308.03
2023-03-04T01:49:42.875Z,97303.75
2023-03-04T01:53:47.970Z,97307.88
2023-03-04T01:57:51.070Z,97302.03
2023-03-04T02:01:55.797Z,97296.44
2023-03-04T02:05:58.382Z,97281.06
2023-03-04T02:10:04.483Z,97285.00
2023-03-04T02:14:05.493Z,97289.53
2023-03-04T02:18:17.780Z,97291.78
2023-03-04T02:22:18.973Z,97279.19
2023-03-04T02:26:24.431Z,97270.06
2023-03-04T02:30:28.935Z,97267.09
2023-03-04T02:34:34.632Z,97254.84
2023-03-04T02:38:37.181Z,97258.38
2023-03-04T02:42:41.272Z,97252.84
2023-03-04T02:46:42.950Z,97203.97
2023-03-04T02:50:49.549Z,97245.50
2023-03-04T02:54:50.164Z,97241.38
2023-03-04T02:58:54.376Z,97243.97
2023-03-04T03:02:57.264Z,97239.38
2023-03-04T03:06:58.391Z,97231.50
2023-03-04T03:10:59.790Z,97224.44
2023-03-04T03:15:03.582Z,97235.63
2023-03-04T03:19:05.263Z,97234.56
2023-03-04T03:23:07.827Z,97236.84
2023-03-04T03:27:09.552Z,97238.66
2023-03-04T03:31:13.214Z,97235.25
2023-03-04T03:35:14.631Z,97239.03
2023-03-04T03:39:15.814Z,97233.69
2023-03-04T03:43:16.538Z,97245.84
2023-03-04T03:47:20.133Z,97240.81
2023-03-04T03:51:20.805Z,97240.44
2023-03-04T03:55:21.292Z,97242.19
2023-03-04T03:59:21.634Z,97244.97
2023-03-04T04:03:25.028Z,97251.50
2023-03-04T04:07:25.536Z,97246.28
2023-03-04T04:11:26.352Z,97246.81
2023-03-04T04:15:27.813Z,97255.53
2023-03-04T04:19:31.695Z,97248.41
2023-03-04T04:23:32.135Z,97252.28
2023-03-04T04:27:32.385Z,97256.19
2023-03-04T04:31:33.251Z,97252.28
2023-03-04T04:35:39.058Z,97225.47
2023-03-04T04:39:42.118Z,97256.69
2023-03-04T04:43:43.749Z,97272.25
2023-03-04T04:47:44.376Z,97274.16
2023-03-04T04:51:47.883Z,97283.53
2023-03-04T04:55:48.620Z,97285.16
2023-03-04T04:59:49.091Z,97288.47
2023-03-04T05:03:49.978Z,97284.56
2023-03-04T05:07:53.472Z,97294.53
2023-03-04T05:11:53.885Z,97296.59
2023-03-04T05:15:56.599Z,97288.50
2023-03-04T05:19:57.282Z,97298.41
2023-03-04T05:24:01.736Z,97302.41
2023-03-04T05:28:05.099Z,97312.00
2023-03-04T05:32:05.919Z,97303.81
2023-03-04T05:36:10.386Z,97304.25
2023-03-04T05:40:16.861Z,97307.75
2023-03-04T05:44:17.424Z,97304.81
2023-03-04T05:48:17.846Z,97274.16
2023-03-04T05:52:18.523Z,97304.91
2023-03-04T05:56:24.286Z,97297.72
2023-03-04T06:00:24.726Z,97283.69
2023-03-04T06:04:25.086Z,97307.78
2023-03-04T06:08:26.081Z,97307.25
2023-03-04T06:12:30.055Z,97311.66
2023-03-04T06:16:30.863Z,97308.88
2023-03-04T06:20:31.552Z,97311.38
2023-03-04T06:24:32.041Z,97311.75
2023-03-04T06:28:35.364Z,97317.34
2023-03-04T06:32:36.124Z,97318.41
2023-03-04T06:36:36.624Z,97320.38
2023-03-04T06:40:37.103Z,97329.22
2023-03-04T06:44:41.310Z,97334.47
2023-03-04T06:48:41.970Z,97337.63
2023-03-04T06:52:43.029Z,97338.28
2023-03-04T06:56:46.477Z,97343.38
2023-03-04T07:00:49.734Z,97346.69
2023-03-04T07:04:50.487Z,97352.25
2023-03-04T07:08:51.205Z,97340.16
2023-03-04T07:12:51.808Z,97337.84
2023-03-04T07:16:55.284Z,97352.41
2023-03-04T07:20:56.650Z,97355.84
2023-03-04T07:24:57.169Z,97358.16
2023-03-04T07:29:00.174Z,97360.75
2023-03-04T07:33:04.324Z,97367.31
2023-03-04T07:37:05.508Z,97366.16
2023-03-04T07:41:06.516Z,97369.59
2023-03-04T07:45:09.077Z,97381.34
2023-03-04T07:49:14.452Z,97376.44
2023-03-04T07:53:15.122Z,97375.78
2023-03-04T07:57:15.884Z,97372.38
2023-03-04T08:01:19.997Z,97369.13
2023-03-04T08:05:23.089Z,97374.50
2023-03-04T08:09:23.710Z,97373.88
2023-03-04T08:13:25.924Z,97361.13
2023-03-04T08:17:26.901Z,97373.22
2023-03-04T08:21:32.015Z,97363.25
2023-03-04T08:25:32.989Z,97346.91
2023-03-04T08:29:34.547Z,97364.69
2023-03-04T08:33:35.470Z,97361.78
2023-03-04T08:37:39.460Z,97362.09
2023-03-04T08:41:40.206Z,97367.00
2023-03-04T08:45:40.858Z,97361.25
2023-03-04T08:49:41.487Z,97358.47
2023-03-04T08:53:45.472Z,97363.31
2023-03-04T08:57:46.399Z,97364.72
2023-03-04T09:01:47.796Z,97363.28
2023-03-04T09:05:49.352Z,97366.53
2023-03-04T09:09:53.119Z,97367.41
2023-03-04T09:13:54.059Z,97366.00
2023-03-04T09:17:54.630Z,97366.84
2023-03-04T09:21:56.004Z,97372.59
2023-03-04T09:26:00.661Z,97374.56
2023-03-04T09:30:01.254Z,97374.56
2023-03-04T09:34:04.205Z,97373.69
2023-03-04T09:38:04.831Z,97381.66
2023-03-04T09:42:11.527Z,97375.69
2023-03-04T09:46:19.036Z,97381.81
2023-03-04T09:50:23.257Z,97381.81
2023-03-04T09:54:55.131Z,97381.53
2023-03-04T09:59:17.443Z,97373.97
2023-03-04T10:03:23.866Z,97379.78
2023-03-04T10:07:32.649Z,97356.28
2023-03-04T10:11:43.072Z,97362.69
2023-03-04T10:15:51.417Z,97353.88
2023-03-04T10:20:00.889Z,97372.47
2023-03-04T10:24:04.203Z,97382.22
2023-03-04T10:28:09.399Z,97367.84
2023-03-04T10:32:17.248Z,97368.66
2023-03-04T10:36:43.614Z,97356.16
2023-03-04T10:40:46.017Z,97359.47
2023-03-04T10:44:57.723Z,97362.00
2023-03-04T10:49:02.472Z,97362.31
2023-03-04T10:53:03.332Z,97360.56
2023-03-04T10:57:08.841Z,97354.59
2023-03-04T11:01:10.136Z,97352.31
2023-03-04T11:05:23.920Z,97347.88
2023-03-04T11:09:28.361Z,97356.22
2023-03-04T11:13:30.058Z,97352.28
2023-03-04T11:17:42.218Z,97354.97
2023-03-04T11:21:46.060Z,97349.97
2023-03-04T11:25:53.014Z,97337.38
2023-03-04T11:30:00.955Z,97344.16
2023-03-04T11:34:13.582Z,97344.84
2023-03-04T11:38:24.292Z,97338.22
2023-03-04T11:42:38.613Z,97338.56
2023-03-04T11:47:00.029Z,97336.53
2023-03-04T11:51:06.345Z,97328.38
2023-03-04T11:55:39.706Z,97322.63
2023-03-04T12:00:00.239Z,97316.34
2023-03-04T12:04:33.777Z,97321.13
2023-03-04T12:09:06.600Z,97313.16
2023-03-04T12:13:41.132Z,97309.81
2023-03-04T12:18:16.500Z,97296.25
2023-03-04T12:22:35.989Z,97276.69
2023-03-04T12:26:43.788Z,97276.19
2023-03-04T12:31:10.696Z,97292.31
2023-03-04T12:35:45.792Z,97280.09
2023-03-04T12:40:09.132Z,97274.06
2023-03-04T12:44:20.203Z,97271.97
2023-03-04T12:48:35.828Z,97274.41
2023-03-04T12:52:54.070Z,97269.50
2023-03-04T12:57:00.687Z,97275.00
2023-03-04T13:01:16.138Z,97265.28
2023-03-04T13:06:05.230Z,97257.28
2023-03-04T13:10:15.185Z,97253.09
2023-03-04T13:14:33.656Z,97247.25
2023-03-04T13:18:39.707Z,97248.94
2023-03-04T13:22:55.458Z,97239.19
2023-03-04T13:26:56.190Z,97243.97
2023-03-04T13:31:26.708Z,97247.28
2023-03-04T13:35:54.733Z,97222.66
2023-03-04T13:40:36.782Z,97242.06
2023-03-04T13:45:05.141Z,97234.75
2023-03-04T13:49:11.164Z,97231.31
2023-03-04T13:53:50.156Z,97229.69
2023-03-04T13:57:55.553Z,97232.75
2023-03-04T14:02:16.610Z,97233.97
2023-03-04T14:06:22.930Z,97222.72
2023-03-04T14:10:27.066Z,97224.66
2023-03-04T14:14:36.040Z,97220.50
2023-03-04T14:18:38.618Z,97213.63
2023-03-04T14:22:44.916Z,97213.63
2023-03-04T14:26:45.314Z,97200.41
2023-03-04T14:30:57.304Z,97204.41
2023-03-04T14:35:02.484Z,97198.63
2023-03-04T14:39:07.436Z,97200.34
2023-03-04T14:43:16.269Z,97190.84
2023-03-04T14:47:29.140Z,97190.44
2023-03-04T14:51:39.785Z,97179.28
2023-03-04T14:55:41.226Z,97189.47
2023-03-04T14:59:42.123Z,97186.25
2023-03-04T15:03:47.915Z,97188.56
2023-03-04T15:07:57.166Z,97189.06
2023-03-04T15:12:06.290Z,97181.25
2023-03-04T15:16:07.171Z,97173.50
2023-03-04T15:20:29.309Z,97171.50
2023-03-04T15:24:30.776Z,97174.56
2023-03-04T15:28:38.050Z,97174.28
2023-03-04T15:32:38.625Z,97172.59
2023-03-04T15:36:43.041Z,97176.38
2023-03-04T15:40:46.716Z,97168.69
2023-03-04T15:44:47.542Z,97170.22
2023-03-04T15:48:48.779Z,97173.28
2023-03-04T15:52:53.511Z,97161.38
2023-03-04T15:56:54.007Z,97164.91
2023-03-04T16:00:54.399Z,97166.72
2023-03-04T16:04:55.717Z,97166.63
2023-03-04T16:08:59.664Z,97154.50
2023-03-04T16:13:00.897Z,97161.31
2023-03-04T16:17:02.427Z,97151.19
2023-03-04T16:21:06.200Z,97149.72
2023-03-04T16:25:12.621Z,97150.00
2023-03-04T16:29:13.763Z,97135.72
2023-03-04T16:33:17.958Z,97157.28
2023-03-04T16:37:23.296Z,97149.25
2023-03-04T16:41:32.246Z,97145.66
2023-03-04T16:45:33.152Z,97143.84
2023-03-04T16:49:33.610Z,97120.53
2023-03-04T16:53:37.987Z,97156.66
2023-03-04T16:57:41.364Z,97157.38
2023-03-04T17:01:42.220Z,97154.41
2023-03-04T17:05:43.033Z,97145.47
2023-03-04T17:09:44.421Z,97162.63
2023-03-04T17:13:48.107Z,97164.03
2023-03-04T17:17:49.083Z,97166.72
2023-03-04T17:21:49.540Z,97130.53
2023-03-04T17:25:58.226Z,97161.34
2023-03-04T17:30:01.496Z,97162.41
2023-03-04T17:34:01.813Z,97158.72
2023-03-04T17:38:02.474Z,97170.47
2023-03-04T17:42:03.035Z,97164.94
2023-03-04T17:46:13.588Z,97151.03
2023-03-04T17:50:15.827Z,97166.94
2023-03-04T17:54:16.585Z,97166.94
2023-03-04T17:58:17.379Z,97161.13
2023-03-04T18:02:20.929Z,97163.59
2023-03-04T18:06:22.891Z,97156.38
2023-03-04T18:10:23.924Z,97164.03
2023-03-04T18:14:24.268Z,97154.09
2023-03-04T18:18:27.752Z,97155.44
2023-03-04T18:22:28.311Z,97146.97
2023-03-04T18:26:29.322Z,97153.81
2023-03-04T18:30:30.071Z,97149.38
2023-03-04T18:34:33.627Z,97146.72
2023-03-04T18:38:34.552Z,97136.78
2023-03-04T18:42:35.733Z,97137.19
2023-03-04T18:46:45.820Z,97144.97
2023-03-04T18:50:51.494Z,97146.13
2023-03-04T18:54:53.472Z,97153.88
2023-03-04T18:58:54.993Z,97149.19
2023-03-04T19:02:59.694Z,97145.50
2023-03-04T19:07:03.433Z,97144.44
2023-03-04T19:11:06.024Z,97146.13
2023-03-04T19:15:08.725Z,97146.09
2023-03-04T19:19:09.469Z,97140.28
2023-03-04T19:23:13.761Z,97132.13
2023-03-04T19:27:14.080Z,97144.72
2023-03-04T19:31:15.357Z,97135.31
2023-03-04T19:35:16.046Z,97135.63
2023-03-04T19:39:19.678Z,97131.88
2023-03-04T19:43:20.302Z,97120.94
2023-03-04T19:47:20.866Z,97133.16
2023-03-04T19:51:26.284Z,97128.19
2023-03-04T19:55:29.934Z,97125.03
2023-03-04T19:59:30.635Z,97133.88
2023-03-04T20:03:31.218Z,97131.06
2023-03-04T20:07:31.589Z,97129.81
2023-03-04T20:11:41.474Z,97135.31
2023-03-04T20:15:51.418Z,97124.56
2023-03-04T20:19:52.376Z,97128.59
2023-03-04T20:23:53.391Z,97128.16
2023-03-04T20:27:57.657Z,97130.00
2023-03-04T20:31:58.848Z,97129.94
2023-03-04T20:35:59.380Z,97119.38
2023-03-04T20:39:59.853Z,97130.09
2023-03-04T20:44:04.709Z,97123.22
2023-03-04T20:48:05.428Z,97128.53
2023-03-04T20:52:06.740Z,97131.16
2023-03-04T20:56:08.048Z,97127.75
2023-03-04T21:00:14.594Z,97125.91
2023-03-04T21:04:16.052Z,97127.75
2023-03-04T21:08:16.824Z,97117.91
2023-03-04T21:12:17.176Z,97137.03
2023-03-04T21:16:21.228Z,97129.72
2023-03-04T21:20:21.531Z,97129.09
2023-03-04T21:24:24.937Z,97131.16
2023-03-04T21:28:26.595Z,97123.56
2023-03-04T21:32:30.589Z,97124.84
2023-03-04T21:36:31.160Z,97118.63
2023-03-04T21:40:31.770Z,97117.91
2023-03-04T21:44:45.458Z,97109.50
2023-03-04T21:48:54.952Z,97108.44
2023-03-04T21:52:55.449Z,97117.25
2023-03-04T21:56:55.979Z,97108.78
2023-03-04T22:00:57.703Z,97101.00
2023-03-04T22:05:01.032Z,97095.22
2023-03-04T22:09:02.577Z,97099.38
2023-03-04T22:13:03.192Z,97094.53
2023-03-04T22:17:03.667Z,97086.09
2023-03-04T22:21:11.041Z,97085.75
2023-03-04T22:25:12.614Z,97088.91
2023-03-04T22:29:13.309Z,97084.75
2023-03-04T22:33:13.682Z,97086.38
2023-03-04T22:37:16.961Z,97081.50
2023-03-04T22:41:19.939Z,97075.56
2023-03-04T22:45:21.776Z,97087.00
2023-03-04T22:49:22.256Z,97084.53
2023-03-04T22:53:26.139Z,97089.97
2023-03-04T22:57:27.158Z,97090.50
2023-03-04T23:01:28.288Z,97082.66
2023-03-04T23:05:29.293Z,97090.78
2023-03-04T23:09:32.892Z,97086.03
2023-03-04T23:13:33.815Z,97075.81
2023-03-04T23:17:34.336Z,97072.03
2023-03-04T23:21:35.670Z,97078.81
2023-03-04T23:25:41.826Z,97073.19
2023-03-04T23:29:42.293Z,97076.25
2023-03-04T23:33:43.410Z,97072.22
2023-03-04T23:37:43.830Z,97070.34
2023-03-04T23:41:47.037Z,97066.63
2023-03-04T23:45:47.588Z,97072.94
2023-03-04T23:49:47.994Z,97055.22
2023-03-04T23:53:49.198Z,97054.16
2023-03-04T23:57:52.735Z,97055.69
